createdAt,value
2023-01-29T00:00:00.893Z,7.11
2023-01-29T00:02:29.101Z,7.07
2023-01-29T00:04:59.144Z,7.08
2023-01-29T00:07:28.849Z,7.10
2023-01-29T00:09:57.028Z,7.13
2023-01-29T00:12:25.236Z,7.16
2023-01-29T00:14:55.022Z,7.17
2023-01-29T00:17:23.500Z,7.21
2023-01-29T00:19:51.756Z,7.23
2023-01-29T00:22:20.129Z,7.22
2023-01-29T00:24:49.785Z,7.23
2023-01-29T00:27:17.967Z,7.25
2023-01-29T00:30:06.162Z,7.29
2023-01-29T00:32:34.401Z,7.28
2023-01-29T00:35:02.599Z,7.27
2023-01-29T00:37:30.943Z,7.27
2023-01-29T00:40:00.536Z,7.29
2023-01-29T00:42:46.365Z,7.28
2023-01-29T00:45:14.904Z,7.28
2023-01-29T00:47:43.053Z,7.29
2023-01-29T00:50:13.601Z,7.28
2023-01-29T00:52:42.263Z,7.27
2023-01-29T00:55:13.105Z,7.21
2023-01-29T00:57:41.395Z,7.15
2023-01-29T01:00:13.093Z,7.10
2023-01-29T01:02:59.076Z,7.05
2023-01-29T01:05:28.426Z,7.05
2023-01-29T01:07:59.855Z,7.10
2023-01-29T01:10:31.735Z,7.14
2023-01-29T01:13:02.033Z,7.15
2023-01-29T01:15:31.900Z,7.19
2023-01-29T01:18:02.032Z,7.20
2023-01-29T01:20:32.195Z,7.21
2023-01-29T01:23:00.431Z,7.22
2023-01-29T01:25:30.232Z,7.21
2023-01-29T01:28:03.316Z,7.22
2023-01-29T01:30:33.216Z,7.23
2023-01-29T01:33:02.044Z,7.24
2023-01-29T01:35:30.608Z,7.26
2023-01-29T01:37:58.839Z,7.24
2023-01-29T01:40:29.214Z,7.21
2023-01-29T01:42:59.617Z,7.20
2023-01-29T01:45:30.340Z,7.22
2023-01-29T01:48:03.196Z,7.23
2023-01-29T01:50:35.533Z,7.25
2023-01-29T01:53:08.592Z,7.26
2023-01-29T01:55:43.217Z,7.26
2023-01-29T01:58:14.213Z,7.23
2023-01-29T02:00:44.139Z,7.23
2023-01-29T02:03:31.622Z,7.24
2023-01-29T02:06:18.887Z,7.21
2023-01-29T02:09:11.584Z,7.14
2023-01-29T02:11:41.565Z,7.09
2023-01-29T02:14:09.982Z,7.11
2023-01-29T02:16:38.606Z,7.11
2023-01-29T02:19:16.445Z,7.14
2023-01-29T02:22:07.155Z,7.14
2023-01-29T02:24:59.677Z,7.15
2023-01-29T02:27:42.722Z,7.12
2023-01-29T02:30:18.620Z,7.10
2023-01-29T02:32:58.733Z,7.11
2023-01-29T02:35:33.358Z,7.10
2023-01-29T02:38:14.211Z,7.08
2023-01-29T02:40:46.746Z,7.08
2023-01-29T02:43:21.158Z,7.05
2023-01-29T02:45:56.719Z,7.06
2023-01-29T02:48:28.964Z,7.02
2023-01-29T02:51:01.807Z,6.94
2023-01-29T02:53:37.403Z,6.91
2023-01-29T02:56:13.821Z,6.92
2023-01-29T02:58:45.400Z,6.94
2023-01-29T03:01:19.630Z,6.95
2023-01-29T03:03:54.278Z,6.94
2023-01-29T03:06:26.400Z,6.97
2023-01-29T03:08:59.035Z,6.99
2023-01-29T03:11:31.326Z,7.01
2023-01-29T03:14:06.133Z,7.02
2023-01-29T03:16:41.298Z,7.04
2023-01-29T03:19:13.371Z,7.03
2023-01-29T03:21:59.449Z,7.00
2023-01-29T03:24:55.004Z,6.97
2023-01-29T03:27:45.273Z,6.97
2023-01-29T03:30:35.053Z,6.99
2023-01-29T03:33:22.146Z,7.00
2023-01-29T03:35:58.651Z,7.00
2023-01-29T03:38:29.749Z,6.97
2023-01-29T03:41:01.115Z,6.91
2023-01-29T03:43:35.328Z,6.91
2023-01-29T03:46:09.269Z,6.93
2023-01-29T03:48:46.027Z,6.96
2023-01-29T03:51:24.913Z,6.98
2023-01-29T03:54:00.992Z,6.97
2023-01-29T03:56:40.761Z,6.95
2023-01-29T03:59:20.952Z,6.92
2023-01-29T04:02:22.061Z,6.92
2023-01-29T04:04:56.327Z,6.94
2023-01-29T04:07:25.658Z,6.95
2023-01-29T04:10:07.940Z,6.94
2023-01-29T04:12:42.666Z,6.96
2023-01-29T04:15:15.883Z,6.96
2023-01-29T04:17:50.215Z,6.94
2023-01-29T04:20:40.122Z,6.91
2023-01-29T04:23:08.893Z,6.90
2023-01-29T04:25:46.074Z,6.94
2023-01-29T04:28:23.739Z,6.96
2023-01-29T04:30:58.415Z,6.99
2023-01-29T04:33:36.280Z,7.01
2023-01-29T04:36:17.541Z,6.98
2023-01-29T04:38:56.207Z,7.00
2023-01-29T04:41:31.040Z,6.99
2023-01-29T04:44:05.027Z,6.99
2023-01-29T04:46:42.855Z,6.98
2023-01-29T04:49:20.013Z,6.91
2023-01-29T04:52:00.857Z,6.86
2023-01-29T04:54:43.320Z,6.81
2023-01-29T04:57:17.391Z,6.76
2023-01-29T04:59:52.482Z,6.75
2023-01-29T05:02:23.241Z,6.75
2023-01-29T05:04:52.009Z,6.80
2023-01-29T05:07:24.684Z,6.85
2023-01-29T05:09:53.149Z,6.87
2023-01-29T05:12:21.449Z,6.88
2023-01-29T05:14:51.982Z,6.89
2023-01-29T05:17:21.834Z,6.91
2023-01-29T05:19:50.437Z,6.95
2023-01-29T05:22:22.870Z,6.95
2023-01-29T05:24:51.432Z,6.90
2023-01-29T05:27:39.875Z,6.86
2023-01-29T05:30:10.439Z,6.83
2023-01-29T05:32:39.834Z,6.86
2023-01-29T05:35:08.703Z,6.90
2023-01-29T05:37:38.542Z,6.92
2023-01-29T05:40:08.930Z,6.92
2023-01-29T05:42:37.386Z,6.92
2023-01-29T05:45:06.275Z,6.92
2023-01-29T05:47:34.481Z,6.91
2023-01-29T05:50:02.629Z,6.94
2023-01-29T05:52:30.895Z,6.97
2023-01-29T05:55:00.465Z,7.00
2023-01-29T05:57:28.704Z,7.01
2023-01-29T05:59:56.918Z,7.01
2023-01-29T06:02:25.112Z,6.98
2023-01-29T06:04:53.591Z,6.95
2023-01-29T06:07:21.796Z,6.92
2023-01-29T06:09:50.037Z,6.87
2023-01-29T06:12:19.644Z,6.85
2023-01-29T06:14:47.879Z,6.86
2023-01-29T06:17:16.072Z,6.89
2023-01-29T06:19:44.299Z,6.90
2023-01-29T06:22:12.551Z,6.93
2023-01-29T06:24:40.759Z,6.97
2023-01-29T06:27:08.953Z,6.96
2023-01-29T06:29:38.572Z,6.92
2023-01-29T06:32:07.101Z,6.89
2023-01-29T06:34:35.465Z,6.90
2023-01-29T06:37:04.032Z,6.90
2023-01-29T06:39:32.273Z,6.89
2023-01-29T06:42:00.606Z,6.90
2023-01-29T06:44:28.792Z,6.88
2023-01-29T06:46:59.142Z,6.84
2023-01-29T06:49:27.458Z,6.84
2023-01-29T06:51:55.713Z,6.85
2023-01-29T06:54:24.011Z,6.87
2023-01-29T06:56:53.033Z,6.90
2023-01-29T06:59:21.316Z,6.91
2023-01-29T07:01:49.596Z,6.93
2023-01-29T07:04:19.305Z,6.94
2023-01-29T07:06:47.507Z,6.93
2023-01-29T07:09:16.137Z,6.94
2023-01-29T07:11:44.687Z,6.93
2023-01-29T07:14:12.967Z,6.92
2023-01-29T07:16:41.202Z,6.92
2023-01-29T07:19:09.474Z,6.89
2023-01-29T07:21:39.405Z,6.89
2023-01-29T07:24:08.212Z,6.87
2023-01-29T07:26:36.621Z,6.88
2023-01-29T07:29:06.325Z,6.90
2023-01-29T07:31:34.851Z,6.89
2023-01-29T07:34:03.089Z,6.87
2023-01-29T07:36:31.445Z,6.87
2023-01-29T07:39:01.147Z,6.89
2023-01-29T07:41:29.706Z,6.87
2023-01-29T07:44:01.026Z,6.84
2023-01-29T07:46:29.217Z,6.84
2023-01-29T07:48:57.417Z,6.85
2023-01-29T07:51:25.637Z,6.86
2023-01-29T07:53:53.888Z,6.82
2023-01-29T07:56:23.506Z,6.84
2023-01-29T07:58:51.748Z,6.82
2023-01-29T08:01:20.022Z,6.83
2023-01-29T08:03:50.552Z,6.85
2023-01-29T08:06:19.479Z,6.86
2023-01-29T08:08:47.688Z,6.84
2023-01-29T08:11:15.976Z,6.84
2023-01-29T08:13:46.775Z,6.86
2023-01-29T08:16:15.427Z,6.88
2023-01-29T08:18:47.713Z,6.89
2023-01-29T08:21:16.576Z,6.90
2023-01-29T08:23:44.762Z,6.91
2023-01-29T08:26:13.045Z,6.88
2023-01-29T08:28:41.273Z,6.87
2023-01-29T08:31:16.483Z,6.91
2023-01-29T08:33:44.726Z,6.91
2023-01-29T08:36:13.048Z,6.93
2023-01-29T08:38:41.383Z,6.92
2023-01-29T08:41:09.737Z,6.93
2023-01-29T08:43:38.694Z,6.93
2023-01-29T08:46:08.022Z,6.93
2023-01-29T08:48:37.813Z,6.90
2023-01-29T08:51:06.225Z,6.87
2023-01-29T08:53:34.509Z,6.90
2023-01-29T08:56:02.751Z,6.90
2023-01-29T08:58:31.015Z,6.93
2023-01-29T09:01:07.084Z,6.94
2023-01-29T09:03:35.389Z,6.95
2023-01-29T09:06:05.515Z,6.95
2023-01-29T09:08:34.116Z,6.97
2023-01-29T09:11:02.317Z,6.98
2023-01-29T09:13:30.683Z,7.01
2023-01-29T09:16:01.401Z,7.02
2023-01-29T09:18:30.615Z,7.02
2023-01-29T09:20:59.167Z,7.02
2023-01-29T09:23:28.813Z,7.04
2023-01-29T09:25:57.447Z,7.04
2023-01-29T09:28:25.837Z,7.06
2023-01-29T09:30:54.132Z,7.00
2023-01-29T09:33:22.383Z,7.04
2023-01-29T09:35:50.611Z,7.08
2023-01-29T09:38:18.813Z,7.06
2023-01-29T09:40:59.738Z,7.09
2023-01-29T09:43:40.577Z,7.12
2023-01-29T09:46:17.786Z,7.13
2023-01-29T09:48:48.007Z,7.14
2023-01-29T09:51:27.112Z,7.17
2023-01-29T09:54:05.137Z,7.15
2023-01-29T09:56:35.288Z,7.17
2023-01-29T09:59:03.599Z,7.17
2023-01-29T10:01:38.265Z,7.19
2023-01-29T10:04:24.030Z,7.24
2023-01-29T10:07:09.196Z,7.28
2023-01-29T10:10:02.988Z,7.32
2023-01-29T10:12:45.566Z,7.37
2023-01-29T10:15:24.675Z,7.36
2023-01-29T10:18:06.599Z,7.38
2023-01-29T10:20:59.393Z,7.39
2023-01-29T10:23:31.526Z,7.41
2023-01-29T10:26:01.337Z,7.44
2023-01-29T10:28:35.127Z,7.48
2023-01-29T10:31:09.676Z,7.52
2023-01-29T10:34:00.985Z,7.55
2023-01-29T10:36:35.466Z,7.61
2023-01-29T10:39:03.854Z,7.62
2023-01-29T10:42:14.549Z,7.63
2023-01-29T10:44:57.919Z,7.67
2023-01-29T10:47:59.835Z,7.67
2023-01-29T10:50:50.119Z,7.68
2023-01-29T10:53:29.807Z,7.69
2023-01-29T10:56:14.082Z,7.72
2023-01-29T10:58:52.866Z,7.76
2023-01-29T11:01:22.723Z,7.78
2023-01-29T11:03:58.885Z,7.83
2023-01-29T11:06:31.607Z,7.85
2023-01-29T11:09:09.002Z,7.84
2023-01-29T11:11:42.825Z,7.88
2023-01-29T11:14:15.884Z,7.94
2023-01-29T11:16:48.575Z,7.97
2023-01-29T11:19:17.586Z,7.97
2023-01-29T11:21:54.323Z,7.98
2023-01-29T11:24:22.573Z,7.97
2023-01-29T11:26:53.124Z,8.02
2023-01-29T11:29:46.584Z,8.06
2023-01-29T11:32:27.024Z,8.06
2023-01-29T11:35:00.961Z,8.11
2023-01-29T11:37:40.614Z,8.18
2023-01-29T11:40:44.255Z,8.24
2023-01-29T11:43:21.722Z,8.27
2023-01-29T11:45:52.587Z,8.30
2023-01-29T11:48:24.632Z,8.35
2023-01-29T11:50:54.886Z,8.41
2023-01-29T11:53:35.879Z,8.42
2023-01-29T11:56:08.483Z,8.48
2023-01-29T11:58:37.021Z,8.43
2023-01-29T12:01:06.686Z,8.49
2023-01-29T12:03:41.566Z,8.53
2023-01-29T12:06:19.362Z,8.57
2023-01-29T12:08:57.019Z,8.66
2023-01-29T12:11:31.868Z,8.75
2023-01-29T12:14:02.134Z,8.80
2023-01-29T12:16:34.729Z,8.82
2023-01-29T12:19:12.899Z,8.85
2023-01-29T12:21:48.331Z,8.93
2023-01-29T12:24:32.019Z,8.99
2023-01-29T12:27:08.844Z,9.04
2023-01-29T12:29:44.985Z,9.07
2023-01-29T12:32:27.580Z,9.07
2023-01-29T12:35:02.952Z,9.11
2023-01-29T12:37:41.144Z,9.18
2023-01-29T12:40:15.824Z,9.17
2023-01-29T12:42:48.936Z,9.08
2023-01-29T12:45:19.969Z,9.05
2023-01-29T12:47:51.389Z,9.11
2023-01-29T12:50:23.334Z,9.18
2023-01-29T12:52:56.127Z,9.14
2023-01-29T12:55:29.423Z,9.16
2023-01-29T12:58:00.010Z,9.17
2023-01-29T13:00:31.363Z,9.20
2023-01-29T13:03:05.520Z,9.14
2023-01-29T13:05:45.076Z,9.16
2023-01-29T13:08:20.032Z,9.11
2023-01-29T13:10:52.299Z,9.12
2023-01-29T13:13:28.863Z,9.14
2023-01-29T13:16:00.180Z,9.18
2023-01-29T13:18:44.880Z,9.20
2023-01-29T13:21:18.691Z,9.14
2023-01-29T13:23:49.707Z,9.14
2023-01-29T13:26:20.303Z,9.11
2023-01-29T13:28:49.424Z,9.08
2023-01-29T13:31:29.741Z,9.05
2023-01-29T13:34:11.156Z,8.96
2023-01-29T13:36:44.563Z,8.97
2023-01-29T13:39:23.980Z,9.00
2023-01-29T13:41:53.540Z,9.01
2023-01-29T13:44:25.962Z,9.03
2023-01-29T13:46:59.060Z,8.97
2023-01-29T13:49:36.198Z,9.01
2023-01-29T13:52:27.212Z,8.96
2023-01-29T13:54:58.664Z,8.99
2023-01-29T13:57:50.383Z,8.93
2023-01-29T14:01:01.659Z,8.98
2023-01-29T14:04:04.602Z,9.00
2023-01-29T14:06:50.885Z,9.00
2023-01-29T14:10:04.115Z,9.00
2023-01-29T14:12:52.810Z,9.00
2023-01-29T14:15:41.951Z,8.98
2023-01-29T14:18:21.447Z,8.97
2023-01-29T14:21:01.480Z,8.99
2023-01-29T14:23:40.513Z,8.99
2023-01-29T14:26:22.955Z,8.95
2023-01-29T14:29:02.434Z,8.94
2023-01-29T14:31:41.765Z,8.83
2023-01-29T14:34:20.247Z,8.82
2023-01-29T14:36:55.375Z,8.85
2023-01-29T14:39:30.970Z,8.87
2023-01-29T14:42:01.149Z,8.87
2023-01-29T14:44:59.048Z,8.88
2023-01-29T14:47:56.543Z,8.90
2023-01-29T14:50:47.077Z,8.90
2023-01-29T14:53:21.151Z,8.92
2023-01-29T14:55:55.408Z,8.94
2023-01-29T14:58:30.355Z,8.93
2023-01-29T15:01:01.302Z,8.95
2023-01-29T15:03:38.672Z,8.99
2023-01-29T15:06:09.115Z,8.99
2023-01-29T15:08:45.146Z,8.98
2023-01-29T15:11:37.552Z,8.98
2023-01-29T15:14:15.143Z,8.98
2023-01-29T15:16:58.232Z,8.98
2023-01-29T15:19:30.992Z,9.00
2023-01-29T15:22:08.144Z,9.02
2023-01-29T15:24:38.508Z,9.04
2023-01-29T15:27:11.357Z,9.03
2023-01-29T15:29:40.750Z,9.03
2023-01-29T15:32:16.373Z,9.02
2023-01-29T15:34:45.562Z,9.04
2023-01-29T15:37:28.158Z,9.02
2023-01-29T15:39:56.682Z,9.01
2023-01-29T15:42:25.983Z,9.02
2023-01-29T15:44:55.672Z,9.02
2023-01-29T15:47:33.865Z,9.02
2023-01-29T15:50:02.187Z,9.01
2023-01-29T15:52:35.368Z,9.02
2023-01-29T15:55:07.749Z,9.04
2023-01-29T15:57:41.317Z,9.03
2023-01-29T16:00:23.160Z,9.02
2023-01-29T16:02:54.926Z,9.01
2023-01-29T16:05:26.874Z,9.02
2023-01-29T16:07:56.783Z,9.04
2023-01-29T16:10:27.795Z,9.03
2023-01-29T16:12:56.746Z,9.07
2023-01-29T16:15:32.341Z,9.05
2023-01-29T16:18:04.734Z,9.06
2023-01-29T16:20:45.169Z,9.05
2023-01-29T16:23:20.310Z,9.07
2023-01-29T16:25:50.536Z,9.07
2023-01-29T16:28:19.752Z,9.07
2023-01-29T16:30:48.165Z,9.07
2023-01-29T16:33:19.891Z,9.10
2023-01-29T16:35:52.974Z,9.10
2023-01-29T16:38:28.826Z,9.11
2023-01-29T16:41:08.704Z,9.12
2023-01-29T16:43:58.818Z,9.11
2023-01-29T16:46:33.368Z,9.14
2023-01-29T16:49:03.596Z,9.14
2023-01-29T16:51:38.642Z,9.16
2023-01-29T16:54:12.234Z,9.16
2023-01-29T16:56:41.289Z,9.17
2023-01-29T16:59:18.921Z,9.18
2023-01-29T17:01:47.834Z,9.18
2023-01-29T17:04:19.968Z,9.17
2023-01-29T17:06:50.159Z,9.16
2023-01-29T17:09:25.549Z,9.18
2023-01-29T17:11:57.707Z,9.17
2023-01-29T17:14:26.911Z,9.16
2023-01-29T17:16:57.256Z,9.16
2023-01-29T17:19:27.123Z,9.16
2023-01-29T17:21:55.760Z,9.16
2023-01-29T17:24:24.349Z,9.16
2023-01-29T17:26:53.921Z,9.14
2023-01-29T17:29:28.082Z,9.14
2023-01-29T17:31:56.737Z,9.12
2023-01-29T17:34:27.357Z,9.12
2023-01-29T17:36:57.350Z,9.11
2023-01-29T17:39:25.737Z,9.11
2023-01-29T17:41:55.652Z,9.08
2023-01-29T17:44:26.248Z,9.06
2023-01-29T17:46:54.865Z,9.05
2023-01-29T17:49:27.209Z,9.04
2023-01-29T17:51:57.456Z,9.02
2023-01-29T17:54:26.813Z,9.01
2023-01-29T17:56:55.428Z,9.01
2023-01-29T17:59:25.831Z,9.01
2023-01-29T18:01:54.523Z,8.99
2023-01-29T18:04:23.058Z,8.99
2023-01-29T18:06:54.429Z,8.98
2023-01-29T18:09:23.436Z,8.96
2023-01-29T18:11:53.504Z,8.95
2023-01-29T18:14:21.739Z,8.93
2023-01-29T18:16:50.055Z,8.93
2023-01-29T18:19:22.265Z,8.93
2023-01-29T18:21:50.950Z,8.94
2023-01-29T18:24:23.698Z,8.94
2023-01-29T18:26:52.506Z,8.94
2023-01-29T18:29:20.733Z,8.93
2023-01-29T18:31:49.984Z,8.95
2023-01-29T18:34:18.265Z,8.95
2023-01-29T18:36:47.914Z,8.94
2023-01-29T18:39:16.449Z,8.93
2023-01-29T18:41:46.081Z,8.94
2023-01-29T18:44:14.322Z,8.94
2023-01-29T18:46:42.574Z,8.93
2023-01-29T18:49:11.093Z,8.90
2023-01-29T18:51:39.324Z,8.88
2023-01-29T18:54:07.557Z,8.83
2023-01-29T18:56:36.081Z,8.77
2023-01-29T18:59:12.109Z,8.70
2023-01-29T19:01:41.433Z,8.61
2023-01-29T19:04:09.664Z,8.56
2023-01-29T19:06:38.070Z,8.49
2023-01-29T19:09:06.391Z,8.40
2023-01-29T19:11:34.591Z,8.29
2023-01-29T19:14:02.819Z,8.22
2023-01-29T19:16:32.422Z,8.15
2023-01-29T19:19:00.654Z,8.09
2023-01-29T19:21:30.461Z,8.03
2023-01-29T19:23:58.707Z,7.95
2023-01-29T19:26:27.011Z,7.89
2023-01-29T19:28:55.325Z,7.79
2023-01-29T19:31:23.552Z,7.71
2023-01-29T19:33:53.218Z,7.69
2023-01-29T19:36:21.559Z,7.69
2023-01-29T19:38:50.269Z,7.72
2023-01-29T19:41:18.609Z,7.78
2023-01-29T19:43:48.378Z,7.87
2023-01-29T19:46:17.490Z,7.94
2023-01-29T19:48:47.178Z,8.01
2023-01-29T19:51:16.859Z,8.07
2023-01-29T19:53:45.019Z,8.11
2023-01-29T19:56:15.629Z,8.16
2023-01-29T19:58:44.824Z,8.20
2023-01-29T20:01:16.667Z,8.27
2023-01-29T20:03:46.663Z,8.31
2023-01-29T20:06:18.054Z,8.38
2023-01-29T20:08:46.844Z,8.44
2023-01-29T20:11:15.728Z,8.44
2023-01-29T20:13:44.676Z,8.46
2023-01-29T20:16:13.037Z,8.47
2023-01-29T20:18:41.397Z,8.51
2023-01-29T20:21:11.480Z,8.53
2023-01-29T20:23:41.585Z,8.55
2023-01-29T20:26:12.581Z,8.58
2023-01-29T20:28:41.304Z,8.60
2023-01-29T20:31:10.954Z,8.63
2023-01-29T20:33:39.826Z,8.65
2023-01-29T20:36:11.328Z,8.70
2023-01-29T20:38:39.614Z,8.73
2023-01-29T20:41:11.985Z,8.73
2023-01-29T20:43:40.757Z,8.72
2023-01-29T20:46:09.240Z,8.75
2023-01-29T20:48:38.765Z,8.76
2023-01-29T20:51:09.461Z,8.78
2023-01-29T20:53:38.288Z,8.78
2023-01-29T20:56:09.039Z,8.80
2023-01-29T20:58:41.349Z,8.81
2023-01-29T21:01:10.517Z,8.85
2023-01-29T21:03:39.799Z,8.85
2023-01-29T21:06:08.605Z,8.85
2023-01-29T21:08:37.244Z,8.88
2023-01-29T21:11:06.974Z,8.88
2023-01-29T21:13:36.926Z,8.88
2023-01-29T21:16:05.889Z,8.89
2023-01-29T21:18:34.111Z,8.89
2023-01-29T21:21:02.406Z,8.90
2023-01-29T21:23:30.835Z,8.89
2023-01-29T21:26:03.322Z,8.90
2023-01-29T21:28:31.528Z,8.83
2023-01-29T21:31:10.163Z,8.86
2023-01-29T21:33:39.521Z,8.87
2023-01-29T21:36:10.172Z,8.88
2023-01-29T21:38:38.787Z,8.89
2023-01-29T21:41:08.996Z,8.91
2023-01-29T21:43:36.767Z,8.92
2023-01-29T21:46:11.858Z,8.93
2023-01-29T21:48:41.183Z,8.97
2023-01-29T21:51:09.442Z,9.00
2023-01-29T21:53:37.849Z,9.04
2023-01-29T21:56:07.309Z,9.07
2023-01-29T21:58:35.756Z,9.07
2023-01-29T22:01:36.676Z,9.09
2023-01-29T22:03:53.660Z,9.12
2023-01-29T22:06:22.838Z,9.15
2023-01-29T22:08:51.172Z,9.15
2023-01-29T22:11:19.723Z,9.17
2023-01-29T22:13:48.125Z,9.15
2023-01-29T22:16:16.365Z,9.10
2023-01-29T22:18:44.625Z,9.06
2023-01-29T22:21:14.273Z,9.01
2023-01-29T22:23:42.850Z,8.95
2023-01-29T22:26:12.286Z,8.92
2023-01-29T22:28:40.614Z,8.90
2023-01-29T22:31:08.835Z,8.84
2023-01-29T22:33:37.202Z,8.75
2023-01-29T22:36:05.951Z,8.66
2023-01-29T22:38:35.606Z,8.58
2023-01-29T22:41:04.776Z,8.49
2023-01-29T22:43:32.974Z,8.41
2023-01-29T22:46:01.214Z,8.35
2023-01-29T22:48:30.745Z,8.30
2023-01-29T22:51:10.146Z,8.23
2023-01-29T22:53:41.484Z,8.14
2023-01-29T22:56:10.391Z,8.06
2023-01-29T22:58:39.043Z,7.97
2023-01-29T23:01:07.336Z,7.90
2023-01-29T23:03:35.761Z,7.82
2023-01-29T23:06:04.845Z,7.72
2023-01-29T23:08:34.050Z,7.64
2023-01-29T23:11:14.546Z,7.55
2023-01-29T23:13:43.900Z,7.45
2023-01-29T23:16:12.237Z,7.36
2023-01-29T23:18:40.520Z,7.28
2023-01-29T23:21:09.703Z,7.20
2023-01-29T23:23:38.779Z,7.11
2023-01-29T23:26:28.775Z,7.04
2023-01-29T23:28:57.063Z,6.90
2023-01-29T23:31:25.789Z,6.81
2023-01-29T23:33:54.078Z,6.73
2023-01-29T23:36:22.532Z,6.68
2023-01-29T23:38:50.754Z,6.65
2023-01-29T23:41:20.322Z,6.65
2023-01-29T23:43:48.638Z,6.65
2023-01-29T23:46:16.859Z,6.68
2023-01-29T23:48:45.169Z,6.74
2023-01-29T23:51:13.387Z,6.80
2023-01-29T23:53:41.922Z,6.83
2023-01-29T23:56:12.372Z,6.82
2023-01-29T23:58:41.948Z,6.80
